Аэропорт: Жуляны. Киев

ICAO: UKKK

METAR:
2019/01/21 23:00
UKKK 212300Z 25003MPS 7000 NSC M09/M12 Q1021 R26/290040 NOSIG
METAR:
2019/01/21 18:15
TAF TAF UKKK 211704Z 2118/2218 29003G08MPS 6000 BKN015 TXM03/2118Z TNM12/2205Z 
      TEMPO 2118/2123 2000 BR BKN007 
      BECMG 2123/2124 24003G08MPS 3000 BR BKN007 
      TEMPO 2200/2207 1000 BR BKN003 PROB40 
      TEMPO 2200/2207 0400 FZFG VV001 
      BECMG 2207/2208 21004G09MPS 9999 NSW SCT020